sensor_id;sensor_type;location;lat;lon;timestamp;P1;durP1;ratioP1;P2;durP2;ratioP2
30553;SDS011;17335;50.720;7.452;2023-04-15T00:00:56;6.55;;;1.90;;
30553;SDS011;17335;50.720;7.452;2023-04-15T00:03:24;2.90;;;1.55;;
30553;SDS011;17335;50.720;7.452;2023-04-15T00:05:51;3.65;;;1.63;;
30553;SDS011;17335;50.720;7.452;2023-04-15T00:08:18;4.80;;;1.70;;
30553;SDS011;17335;50.720;7.452;2023-04-15T00:10:45;2.78;;;1.60;;
30553;SDS011;17335;50.720;7.452;2023-04-15T00:13:12;5.38;;;2.10;;
30553;SDS011;17335;50.720;7.452;2023-04-15T00:15:38;4.35;;;1.70;;
30553;SDS011;17335;50.720;7.452;2023-04-15T00:18:05;4.20;;;1.70;;
30553;SDS011;17335;50.720;7.452;2023-04-15T00:20:33;4.65;;;2.30;;
30553;SDS011;17335;50.720;7.452;2023-04-15T00:23:01;3.88;;;1.83;;
30553;SDS011;17335;50.720;7.452;2023-04-15T00:25:29;3.45;;;1.70;;
30553;SDS011;17335;50.720;7.452;2023-04-15T00:27:56;5.88;;;1.90;;
30553;SDS011;17335;50.720;7.452;2023-04-15T00:30:22;4.25;;;1.70;;
30553;SDS011;17335;50.720;7.452;2023-04-15T00:32:49;7.78;;;2.08;;
30553;SDS011;17335;50.720;7.452;2023-04-15T00:35:15;6.80;;;2.17;;
30553;SDS011;17335;50.720;7.452;2023-04-15T00:37:42;5.68;;;2.50;;
30553;SDS011;17335;50.720;7.452;2023-04-15T00:40:11;6.05;;;1.60;;
30553;SDS011;17335;50.720;7.452;2023-04-15T00:42:38;6.63;;;2.00;;
30553;SDS011;17335;50.720;7.452;2023-04-15T00:45:05;4.93;;;1.90;;
30553;SDS011;17335;50.720;7.452;2023-04-15T00:47:34;4.38;;;2.13;;
30553;SDS011;17335;50.720;7.452;2023-04-15T00:50:02;6.80;;;2.00;;
30553;SDS011;17335;50.720;7.452;2023-04-15T00:52:30;3.72;;;2.13;;
30553;SDS011;17335;50.720;7.452;2023-04-15T00:54:57;4.70;;;2.15;;
30553;SDS011;17335;50.720;7.452;2023-04-15T00:57:25;3.90;;;2.10;;
30553;SDS011;17335;50.720;7.452;2023-04-15T00:59:53;3.53;;;1.90;;
30553;SDS011;17335;50.720;7.452;2023-04-15T01:02:21;5.00;;;2.10;;
30553;SDS011;17335;50.720;7.452;2023-04-15T01:04:49;5.13;;;1.90;;
30553;SDS011;17335;50.720;7.452;2023-04-15T01:07:15;6.45;;;2.42;;
30553;SDS011;17335;50.720;7.452;2023-04-15T01:09:42;6.97;;;1.95;;
30553;SDS011;17335;50.720;7.452;2023-04-15T01:12:11;3.42;;;1.73;;
30553;SDS011;17335;50.720;7.452;2023-04-15T01:14:40;4.05;;;1.83;;
30553;SDS011;17335;50.720;7.452;2023-04-15T01:17:07;3.28;;;1.90;;
30553;SDS011;17335;50.720;7.452;2023-04-15T01:19:37;4.65;;;2.15;;
30553;SDS011;17335;50.720;7.452;2023-04-15T01:22:04;4.00;;;1.98;;
30553;SDS011;17335;50.720;7.452;2023-04-15T01:24:31;5.93;;;1.92;;
30553;SDS011;17335;50.720;7.452;2023-04-15T01:26:59;4.32;;;2.00;;
30553;SDS011;17335;50.720;7.452;2023-04-15T01:29:26;6.35;;;2.05;;
30553;SDS011;17335;50.720;7.452;2023-04-15T01:31:54;5.38;;;2.10;;
30553;SDS011;17335;50.720;7.452;2023-04-15T01:34:21;4.03;;;1.70;;
30553;SDS011;17335;50.720;7.452;2023-04-15T01:36:48;4.47;;;2.10;;
30553;SDS011;17335;50.720;7.452;2023-04-15T01:39:15;5.25;;;1.80;;
30553;SDS011;17335;50.720;7.452;2023-04-15T01:41:42;3.25;;;1.95;;
30553;SDS011;17335;50.720;7.452;2023-04-15T01:44:09;7.57;;;2.00;;
30553;SDS011;17335;50.720;7.452;2023-04-15T01:46:36;5.72;;;2.28;;
30553;SDS011;17335;50.720;7.452;2023-04-15T01:49:02;7.10;;;2.10;;
30553;SDS011;17335;50.720;7.452;2023-04-15T01:51:29;6.07;;;2.33;;
30553;SDS011;17335;50.720;7.452;2023-04-15T01:53:56;4.78;;;2.10;;
30553;SDS011;17335;50.720;7.452;2023-04-15T01:56:22;10.85;;;1.98;;
30553;SDS011;17335;50.720;7.452;2023-04-15T01:58:52;6.22;;;2.05;;
30553;SDS011;17335;50.720;7.452;2023-04-15T02:01:18;6.10;;;2.20;;
30553;SDS011;17335;50.720;7.452;2023-04-15T02:03:46;6.53;;;2.00;;
30553;SDS011;17335;50.720;7.452;2023-04-15T02:06:13;15.02;;;2.35;;
30553;SDS011;17335;50.720;7.452;2023-04-15T02:08:40;10.75;;;2.63;;
30553;SDS011;17335;50.720;7.452;2023-04-15T02:11:07;3.70;;;1.98;;
30553;SDS011;17335;50.720;7.452;2023-04-15T02:13:34;5.25;;;2.72;;
30553;SDS011;17335;50.720;7.452;2023-04-15T02:16:01;4.75;;;2.03;;
30553;SDS011;17335;50.720;7.452;2023-04-15T02:18:28;5.53;;;2.92;;
30553;SDS011;17335;50.720;7.452;2023-04-15T02:20:54;6.68;;;2.42;;
30553;SDS011;17335;50.720;7.452;2023-04-15T02:23:23;4.68;;;2.13;;
30553;SDS011;17335;50.720;7.452;2023-04-15T02:25:50;4.10;;;1.95;;
30553;SDS011;17335;50.720;7.452;2023-04-15T02:28:19;6.05;;;2.90;;
30553;SDS011;17335;50.720;7.452;2023-04-15T02:30:49;5.05;;;2.20;;
30553;SDS011;17335;50.720;7.452;2023-04-15T02:33:18;4.70;;;2.45;;
30553;SDS011;17335;50.720;7.452;2023-04-15T02:35:46;4.70;;;2.25;;
30553;SDS011;17335;50.720;7.452;2023-04-15T02:38:13;3.75;;;2.20;;
30553;SDS011;17335;50.720;7.452;2023-04-15T02:40:42;4.25;;;1.92;;
30553;SDS011;17335;50.720;7.452;2023-04-15T02:43:08;9.02;;;2.78;;
30553;SDS011;17335;50.720;7.452;2023-04-15T02:45:35;5.07;;;2.35;;
30553;SDS011;17335;50.720;7.452;2023-04-15T02:48:01;5.35;;;2.58;;
30553;SDS011;17335;50.720;7.452;2023-04-15T02:50:31;5.53;;;2.60;;
30553;SDS011;17335;50.720;7.452;2023-04-15T02:52:58;4.70;;;2.30;;
30553;SDS011;17335;50.720;7.452;2023-04-15T02:55:26;4.38;;;2.40;;
30553;SDS011;17335;50.720;7.452;2023-04-15T02:57:53;5.20;;;2.25;;
30553;SDS011;17335;50.720;7.452;2023-04-15T03:00:19;5.35;;;2.30;;
30553;SDS011;17335;50.720;7.452;2023-04-15T03:02:46;5.85;;;2.00;;
30553;SDS011;17335;50.720;7.452;2023-04-15T03:05:13;5.60;;;2.38;;
30553;SDS011;17335;50.720;7.452;2023-04-15T03:07:39;7.18;;;2.50;;
30553;SDS011;17335;50.720;7.452;2023-04-15T03:10:06;5.30;;;2.80;;
30553;SDS011;17335;50.720;7.452;2023-04-15T03:12:33;5.38;;;2.67;;
30553;SDS011;17335;50.720;7.452;2023-04-15T03:15:00;4.35;;;2.40;;
30553;SDS011;17335;50.720;7.452;2023-04-15T03:17:27;4.50;;;2.58;;
30553;SDS011;17335;50.720;7.452;2023-04-15T03:19:53;5.53;;;2.65;;
30553;SDS011;17335;50.720;7.452;2023-04-15T03:22:20;6.63;;;2.20;;
30553;SDS011;17335;50.720;7.452;2023-04-15T03:24:46;6.32;;;2.30;;
30553;SDS011;17335;50.720;7.452;2023-04-15T03:27:12;7.28;;;2.58;;
30553;SDS011;17335;50.720;7.452;2023-04-15T03:29:39;5.28;;;2.67;;
30553;SDS011;17335;50.720;7.452;2023-04-15T03:32:05;11.75;;;2.90;;
30553;SDS011;17335;50.720;7.452;2023-04-15T03:34:32;5.18;;;2.38;;
30553;SDS011;17335;50.720;7.452;2023-04-15T03:36:58;5.07;;;2.30;;
30553;SDS011;17335;50.720;7.452;2023-04-15T03:39:25;5.15;;;2.35;;
30553;SDS011;17335;50.720;7.452;2023-04-15T03:41:52;5.85;;;2.65;;
30553;SDS011;17335;50.720;7.452;2023-04-15T03:44:18;7.28;;;2.55;;
30553;SDS011;17335;50.720;7.452;2023-04-15T03:46:45;5.55;;;2.70;;
30553;SDS011;17335;50.720;7.452;2023-04-15T03:49:12;5.20;;;2.47;;
30553;SDS011;17335;50.720;7.452;2023-04-15T03:51:39;7.22;;;2.40;;
30553;SDS011;17335;50.720;7.452;2023-04-15T03:54:05;3.75;;;2.50;;
30553;SDS011;17335;50.720;7.452;2023-04-15T03:56:32;9.00;;;2.72;;
30553;SDS011;17335;50.720;7.452;2023-04-15T03:58:58;4.65;;;2.30;;
30553;SDS011;17335;50.720;7.452;2023-04-15T04:01:25;5.22;;;2.35;;
30553;SDS011;17335;50.720;7.452;2023-04-15T04:03:52;13.02;;;2.80;;
30553;SDS011;17335;50.720;7.452;2023-04-15T04:06:19;5.88;;;2.88;;
30553;SDS011;17335;50.720;7.452;2023-04-15T04:08:45;13.57;;;2.92;;
30553;SDS011;17335;50.720;7.452;2023-04-15T04:11:12;4.80;;;2.60;;
30553;SDS011;17335;50.720;7.452;2023-04-15T04:13:39;5.63;;;2.50;;
30553;SDS011;17335;50.720;7.452;2023-04-15T04:16:05;4.32;;;2.13;;
30553;SDS011;17335;50.720;7.452;2023-04-15T04:18:32;6.85;;;2.80;;
30553;SDS011;17335;50.720;7.452;2023-04-15T04:20:59;4.18;;;2.45;;
30553;SDS011;17335;50.720;7.452;2023-04-15T04:23:26;6.15;;;2.30;;
30553;SDS011;17335;50.720;7.452;2023-04-15T04:25:52;7.75;;;3.05;;
30553;SDS011;17335;50.720;7.452;2023-04-15T04:28:19;41.90;;;14.00;;
30553;SDS011;17335;50.720;7.452;2023-04-15T04:30:45;52.92;;;15.40;;
30553;SDS011;17335;50.720;7.452;2023-04-15T04:33:12;34.75;;;11.63;;
30553;SDS011;17335;50.720;7.452;2023-04-15T04:35:38;20.92;;;7.50;;
30553;SDS011;17335;50.720;7.452;2023-04-15T04:38:05;10.15;;;4.78;;
30553;SDS011;17335;50.720;7.452;2023-04-15T04:40:31;7.80;;;4.13;;
30553;SDS011;17335;50.720;7.452;2023-04-15T04:42:58;9.43;;;3.55;;
30553;SDS011;17335;50.720;7.452;2023-04-15T04:45:25;8.50;;;3.67;;
30553;SDS011;17335;50.720;7.452;2023-04-15T04:47:52;7.32;;;3.67;;
30553;SDS011;17335;50.720;7.452;2023-04-15T04:50:19;11.93;;;5.43;;
30553;SDS011;17335;50.720;7.452;2023-04-15T04:52:46;11.82;;;4.75;;
30553;SDS011;17335;50.720;7.452;2023-04-15T04:55:12;7.53;;;3.20;;
30553;SDS011;17335;50.720;7.452;2023-04-15T04:57:38;6.97;;;3.03;;
30553;SDS011;17335;50.720;7.452;2023-04-15T05:00:06;4.95;;;2.70;;
30553;SDS011;17335;50.720;7.452;2023-04-15T05:02:34;5.63;;;3.00;;
30553;SDS011;17335;50.720;7.452;2023-04-15T05:05:01;5.65;;;3.42;;
30553;SDS011;17335;50.720;7.452;2023-04-15T05:07:27;11.10;;;4.80;;
30553;SDS011;17335;50.720;7.452;2023-04-15T05:09:54;14.63;;;6.20;;
30553;SDS011;17335;50.720;7.452;2023-04-15T05:12:20;14.90;;;4.97;;
30553;SDS011;17335;50.720;7.452;2023-04-15T05:14:47;13.15;;;4.10;;
30553;SDS011;17335;50.720;7.452;2023-04-15T05:17:13;6.57;;;3.45;;
30553;SDS011;17335;50.720;7.452;2023-04-15T05:19:40;6.63;;;3.47;;
30553;SDS011;17335;50.720;7.452;2023-04-15T05:22:06;9.63;;;2.70;;
30553;SDS011;17335;50.720;7.452;2023-04-15T05:24:33;4.80;;;2.72;;
30553;SDS011;17335;50.720;7.452;2023-04-15T05:27:00;7.15;;;3.08;;
30553;SDS011;17335;50.720;7.452;2023-04-15T05:29:27;6.45;;;3.00;;
30553;SDS011;17335;50.720;7.452;2023-04-15T05:31:53;6.50;;;3.28;;
30553;SDS011;17335;50.720;7.452;2023-04-15T05:34:20;12.13;;;3.13;;
30553;SDS011;17335;50.720;7.452;2023-04-15T05:36:46;4.90;;;2.55;;
30553;SDS011;17335;50.720;7.452;2023-04-15T05:39:13;8.07;;;2.85;;
30553;SDS011;17335;50.720;7.452;2023-04-15T05:41:40;6.40;;;2.92;;
30553;SDS011;17335;50.720;7.452;2023-04-15T05:44:06;7.97;;;3.42;;
30553;SDS011;17335;50.720;7.452;2023-04-15T05:46:33;11.85;;;3.38;;
30553;SDS011;17335;50.720;7.452;2023-04-15T05:49:00;6.97;;;2.72;;
30553;SDS011;17335;50.720;7.452;2023-04-15T05:51:27;8.20;;;3.05;;
30553;SDS011;17335;50.720;7.452;2023-04-15T05:53:54;10.45;;;3.10;;
30553;SDS011;17335;50.720;7.452;2023-04-15T05:56:20;6.60;;;2.60;;
30553;SDS011;17335;50.720;7.452;2023-04-15T05:58:47;7.32;;;3.28;;
30553;SDS011;17335;50.720;7.452;2023-04-15T06:01:14;5.57;;;2.85;;
30553;SDS011;17335;50.720;7.452;2023-04-15T06:03:41;5.55;;;2.95;;
30553;SDS011;17335;50.720;7.452;2023-04-15T06:06:08;5.72;;;3.45;;
30553;SDS011;17335;50.720;7.452;2023-04-15T06:08:35;5.82;;;3.08;;
30553;SDS011;17335;50.720;7.452;2023-04-15T06:11:01;7.13;;;3.47;;
30553;SDS011;17335;50.720;7.452;2023-04-15T06:13:28;9.73;;;3.53;;
30553;SDS011;17335;50.720;7.452;2023-04-15T06:15:54;9.23;;;3.60;;
30553;SDS011;17335;50.720;7.452;2023-04-15T06:18:21;8.98;;;3.30;;
30553;SDS011;17335;50.720;7.452;2023-04-15T06:20:47;8.70;;;3.20;;
30553;SDS011;17335;50.720;7.452;2023-04-15T06:23:13;6.55;;;3.53;;
30553;SDS011;17335;50.720;7.452;2023-04-15T06:25:40;11.30;;;4.57;;
30553;SDS011;17335;50.720;7.452;2023-04-15T06:28:06;14.65;;;4.30;;
30553;SDS011;17335;50.720;7.452;2023-04-15T06:30:33;5.45;;;3.22;;
30553;SDS011;17335;50.720;7.452;2023-04-15T06:33:01;6.75;;;3.55;;
30553;SDS011;17335;50.720;7.452;2023-04-15T06:35:30;7.53;;;4.10;;
30553;SDS011;17335;50.720;7.452;2023-04-15T06:37:57;10.02;;;4.55;;
30553;SDS011;17335;50.720;7.452;2023-04-15T06:40:23;10.15;;;4.03;;
30553;SDS011;17335;50.720;7.452;2023-04-15T06:42:50;9.68;;;5.50;;
30553;SDS011;17335;50.720;7.452;2023-04-15T06:45:16;11.15;;;4.18;;
30553;SDS011;17335;50.720;7.452;2023-04-15T06:47:43;9.10;;;4.78;;
30553;SDS011;17335;50.720;7.452;2023-04-15T06:50:09;10.40;;;4.40;;
30553;SDS011;17335;50.720;7.452;2023-04-15T06:52:36;8.75;;;4.10;;
30553;SDS011;17335;50.720;7.452;2023-04-15T06:55:03;10.85;;;3.80;;
30553;SDS011;17335;50.720;7.452;2023-04-15T06:57:30;12.07;;;4.35;;
30553;SDS011;17335;50.720;7.452;2023-04-15T07:00:00;9.63;;;4.60;;
30553;SDS011;17335;50.720;7.452;2023-04-15T07:02:27;7.18;;;3.75;;
30553;SDS011;17335;50.720;7.452;2023-04-15T07:04:53;13.48;;;4.80;;
30553;SDS011;17335;50.720;7.452;2023-04-15T07:07:20;10.32;;;4.68;;
30553;SDS011;17335;50.720;7.452;2023-04-15T07:09:47;6.97;;;4.20;;
30553;SDS011;17335;50.720;7.452;2023-04-15T07:12:13;9.43;;;5.55;;
30553;SDS011;17335;50.720;7.452;2023-04-15T07:14:40;13.55;;;7.05;;
30553;SDS011;17335;50.720;7.452;2023-04-15T07:17:07;17.83;;;8.43;;
30553;SDS011;17335;50.720;7.452;2023-04-15T07:19:35;13.18;;;5.90;;
30553;SDS011;17335;50.720;7.452;2023-04-15T07:22:01;9.85;;;5.55;;
30553;SDS011;17335;50.720;7.452;2023-04-15T07:24:28;12.05;;;5.05;;
30553;SDS011;17335;50.720;7.452;2023-04-15T07:26:55;10.90;;;5.10;;
30553;SDS011;17335;50.720;7.452;2023-04-15T07:29:25;10.48;;;5.25;;
30553;SDS011;17335;50.720;7.452;2023-04-15T07:31:52;13.70;;;5.20;;
30553;SDS011;17335;50.720;7.452;2023-04-15T07:34:19;10.73;;;5.35;;
30553;SDS011;17335;50.720;7.452;2023-04-15T07:36:46;9.32;;;5.30;;
30553;SDS011;17335;50.720;7.452;2023-04-15T07:39:15;12.93;;;5.50;;
30553;SDS011;17335;50.720;7.452;2023-04-15T07:41:42;12.73;;;5.13;;
30553;SDS011;17335;50.720;7.452;2023-04-15T07:44:08;14.48;;;5.93;;
30553;SDS011;17335;50.720;7.452;2023-04-15T07:46:35;13.00;;;4.95;;
30553;SDS011;17335;50.720;7.452;2023-04-15T07:49:03;9.80;;;5.28;;
30553;SDS011;17335;50.720;7.452;2023-04-15T07:51:30;11.25;;;5.88;;
30553;SDS011;17335;50.720;7.452;2023-04-15T07:53:57;10.93;;;5.50;;
30553;SDS011;17335;50.720;7.452;2023-04-15T07:56:23;11.60;;;5.30;;
30553;SDS011;17335;50.720;7.452;2023-04-15T07:58:51;10.52;;;4.85;;
30553;SDS011;17335;50.720;7.452;2023-04-15T08:01:18;9.35;;;4.88;;
30553;SDS011;17335;50.720;7.452;2023-04-15T08:03:44;9.20;;;5.03;;
30553;SDS011;17335;50.720;7.452;2023-04-15T08:06:11;10.27;;;4.80;;
30553;SDS011;17335;50.720;7.452;2023-04-15T08:08:38;9.60;;;4.85;;
30553;SDS011;17335;50.720;7.452;2023-04-15T08:11:04;9.93;;;4.65;;
30553;SDS011;17335;50.720;7.452;2023-04-15T08:13:31;8.45;;;4.43;;
30553;SDS011;17335;50.720;7.452;2023-04-15T08:18:48;12.60;;;4.40;;
30553;SDS011;17335;50.720;7.452;2023-04-15T08:21:15;9.32;;;3.75;;
30553;SDS011;17335;50.720;7.452;2023-04-15T08:23:43;7.35;;;4.25;;
30553;SDS011;17335;50.720;7.452;2023-04-15T08:26:11;18.17;;;9.90;;
30553;SDS011;17335;50.720;7.452;2023-04-15T08:28:39;8.82;;;4.82;;
30553;SDS011;17335;50.720;7.452;2023-04-15T08:31:06;11.90;;;4.20;;
30553;SDS011;17335;50.720;7.452;2023-04-15T08:33:33;9.50;;;4.75;;
30553;SDS011;17335;50.720;7.452;2023-04-15T08:36:01;11.55;;;4.40;;
30553;SDS011;17335;50.720;7.452;2023-04-15T08:38:27;8.63;;;5.32;;
30553;SDS011;17335;50.720;7.452;2023-04-15T08:40:54;9.73;;;5.03;;
30553;SDS011;17335;50.720;7.452;2023-04-15T08:43:26;7.75;;;3.88;;
30553;SDS011;17335;50.720;7.452;2023-04-15T08:45:54;13.52;;;3.85;;
30553;SDS011;17335;50.720;7.452;2023-04-15T08:48:21;8.32;;;3.75;;
30553;SDS011;17335;50.720;7.452;2023-04-15T08:50:50;6.93;;;3.38;;
30553;SDS011;17335;50.720;7.452;2023-04-15T08:53:17;6.18;;;3.00;;
30553;SDS011;17335;50.720;7.452;2023-04-15T08:55:44;5.85;;;2.80;;
30553;SDS011;17335;50.720;7.452;2023-04-15T08:58:12;7.55;;;2.80;;
30553;SDS011;17335;50.720;7.452;2023-04-15T09:00:39;4.97;;;2.42;;
30553;SDS011;17335;50.720;7.452;2023-04-15T09:03:07;8.32;;;2.72;;
30553;SDS011;17335;50.720;7.452;2023-04-15T09:05:35;8.52;;;3.00;;
30553;SDS011;17335;50.720;7.452;2023-04-15T09:08:02;12.60;;;2.65;;
30553;SDS011;17335;50.720;7.452;2023-04-15T09:10:30;3.83;;;2.10;;
30553;SDS011;17335;50.720;7.452;2023-04-15T09:13:00;3.70;;;1.80;;
30553;SDS011;17335;50.720;7.452;2023-04-15T09:15:27;3.35;;;1.70;;
30553;SDS011;17335;50.720;7.452;2023-04-15T09:17:55;5.03;;;1.70;;
30553;SDS011;17335;50.720;7.452;2023-04-15T09:20:23;3.28;;;1.35;;
30553;SDS011;17335;50.720;7.452;2023-04-15T09:22:50;4.85;;;1.75;;
30553;SDS011;17335;50.720;7.452;2023-04-15T09:27:47;6.47;;;1.30;;
30553;SDS011;17335;50.720;7.452;2023-04-15T09:30:14;2.28;;;1.10;;
30553;SDS011;17335;50.720;7.452;2023-04-15T09:32:48;5.15;;;1.30;;
30553;SDS011;17335;50.720;7.452;2023-04-15T09:35:19;4.03;;;1.77;;
30553;SDS011;17335;50.720;7.452;2023-04-15T09:37:47;3.35;;;1.30;;
30553;SDS011;17335;50.720;7.452;2023-04-15T09:40:34;4.95;;;1.33;;
30553;SDS011;17335;50.720;7.452;2023-04-15T09:43:03;4.72;;;1.73;;
30553;SDS011;17335;50.720;7.452;2023-04-15T09:45:32;6.40;;;2.05;;
30553;SDS011;17335;50.720;7.452;2023-04-15T09:48:14;4.25;;;1.90;;
30553;SDS011;17335;50.720;7.452;2023-04-15T09:50:52;8.52;;;3.58;;
30553;SDS011;17335;50.720;7.452;2023-04-15T09:53:23;3.28;;;1.80;;
30553;SDS011;17335;50.720;7.452;2023-04-15T09:55:57;29.65;;;18.73;;
30553;SDS011;17335;50.720;7.452;2023-04-15T09:58:28;8.73;;;6.45;;
30553;SDS011;17335;50.720;7.452;2023-04-15T10:00:57;3.30;;;2.10;;
30553;SDS011;17335;50.720;7.452;2023-04-15T10:03:28;2.75;;;1.60;;
30553;SDS011;17335;50.720;7.452;2023-04-15T10:05:59;5.72;;;3.97;;
30553;SDS011;17335;50.720;7.452;2023-04-15T10:08:28;5.55;;;2.35;;
30553;SDS011;17335;50.720;7.452;2023-04-15T10:10:55;6.82;;;4.60;;
30553;SDS011;17335;50.720;7.452;2023-04-15T10:13:24;6.10;;;3.85;;
30553;SDS011;17335;50.720;7.452;2023-04-15T10:15:56;4.32;;;1.65;;
30553;SDS011;17335;50.720;7.452;2023-04-15T10:18:25;3.17;;;1.50;;
30553;SDS011;17335;50.720;7.452;2023-04-15T10:20:53;3.97;;;2.00;;
30553;SDS011;17335;50.720;7.452;2023-04-15T10:23:21;5.35;;;2.90;;
30553;SDS011;17335;50.720;7.452;2023-04-15T10:25:48;5.45;;;2.03;;
30553;SDS011;17335;50.720;7.452;2023-04-15T10:28:17;6.40;;;4.63;;
30553;SDS011;17335;50.720;7.452;2023-04-15T10:30:45;6.30;;;3.40;;
30553;SDS011;17335;50.720;7.452;2023-04-15T10:33:13;114.93;;;40.72;;
30553;SDS011;17335;50.720;7.452;2023-04-15T10:35:41;29.13;;;10.55;;
30553;SDS011;17335;50.720;7.452;2023-04-15T10:43:48;79.35;;;24.90;;
30553;SDS011;17335;50.720;7.452;2023-04-15T10:49:11;115.38;;;50.58;;
30553;SDS011;17335;50.720;7.452;2023-04-15T10:51:39;44.20;;;25.75;;
30553;SDS011;17335;50.720;7.452;2023-04-15T10:54:13;10.13;;;5.47;;
30553;SDS011;17335;50.720;7.452;2023-04-15T10:59:29;2.78;;;1.50;;
30553;SDS011;17335;50.720;7.452;2023-04-15T11:01:59;9.55;;;6.25;;
30553;SDS011;17335;50.720;7.452;2023-04-15T11:12:39;4.55;;;2.60;;
30553;SDS011;17335;50.720;7.452;2023-04-15T11:18:16;5.32;;;2.90;;
30553;SDS011;17335;50.720;7.452;2023-04-15T11:20:43;4.68;;;2.60;;
30553;SDS011;17335;50.720;7.452;2023-04-15T11:23:10;4.70;;;2.75;;
30553;SDS011;17335;50.720;7.452;2023-04-15T11:25:41;4.13;;;2.50;;
30553;SDS011;17335;50.720;7.452;2023-04-15T11:28:08;6.47;;;3.60;;
30553;SDS011;17335;50.720;7.452;2023-04-15T11:30:35;5.72;;;3.22;;
30553;SDS011;17335;50.720;7.452;2023-04-15T11:33:03;6.03;;;3.00;;
30553;SDS011;17335;50.720;7.452;2023-04-15T11:35:30;5.85;;;2.83;;
30553;SDS011;17335;50.720;7.452;2023-04-15T11:37:57;5.85;;;2.45;;
30553;SDS011;17335;50.720;7.452;2023-04-15T11:40:29;8.48;;;3.40;;
30553;SDS011;17335;50.720;7.452;2023-04-15T11:43:13;6.13;;;3.70;;
30553;SDS011;17335;50.720;7.452;2023-04-15T11:48:20;6.65;;;4.15;;
30553;SDS011;17335;50.720;7.452;2023-04-15T11:50:52;7.75;;;4.43;;
30553;SDS011;17335;50.720;7.452;2023-04-15T11:55:51;117.82;;;53.20;;
30553;SDS011;17335;50.720;7.452;2023-04-15T11:58:20;127.72;;;50.85;;
30553;SDS011;17335;50.720;7.452;2023-04-15T12:00:52;175.13;;;88.50;;
30553;SDS011;17335;50.720;7.452;2023-04-15T12:03:24;62.83;;;32.70;;
30553;SDS011;17335;50.720;7.452;2023-04-15T12:06:04;25.42;;;14.82;;
30553;SDS011;17335;50.720;7.452;2023-04-15T12:09:12;38.92;;;22.80;;
30553;SDS011;17335;50.720;7.452;2023-04-15T12:11:44;47.28;;;27.90;;
30553;SDS011;17335;50.720;7.452;2023-04-15T12:14:24;52.28;;;31.27;;
30553;SDS011;17335;50.720;7.452;2023-04-15T12:16:57;56.47;;;34.33;;
30553;SDS011;17335;50.720;7.452;2023-04-15T12:19:26;16.15;;;9.35;;
30553;SDS011;17335;50.720;7.452;2023-04-15T12:21:58;49.15;;;27.50;;
30553;SDS011;17335;50.720;7.452;2023-04-15T12:24:35;47.42;;;27.20;;
30553;SDS011;17335;50.720;7.452;2023-04-15T12:27:03;38.60;;;22.23;;
30553;SDS011;17335;50.720;7.452;2023-04-15T12:29:35;18.48;;;9.82;;
30553;SDS011;17335;50.720;7.452;2023-04-15T12:32:04;25.58;;;14.57;;
30553;SDS011;17335;50.720;7.452;2023-04-15T12:34:36;13.95;;;8.27;;
30553;SDS011;17335;50.720;7.452;2023-04-15T12:37:06;26.05;;;16.10;;
30553;SDS011;17335;50.720;7.452;2023-04-15T12:39:35;16.33;;;9.00;;
30553;SDS011;17335;50.720;7.452;2023-04-15T12:42:06;13.93;;;8.77;;
30553;SDS011;17335;50.720;7.452;2023-04-15T12:44:34;15.27;;;9.48;;
30553;SDS011;17335;50.720;7.452;2023-04-15T12:47:01;14.70;;;7.82;;
30553;SDS011;17335;50.720;7.452;2023-04-15T12:49:30;18.70;;;9.63;;
30553;SDS011;17335;50.720;7.452;2023-04-15T12:51:58;18.33;;;11.25;;
30553;SDS011;17335;50.720;7.452;2023-04-15T12:54:29;13.27;;;7.85;;
30553;SDS011;17335;50.720;7.452;2023-04-15T12:56:57;16.25;;;9.93;;
30553;SDS011;17335;50.720;7.452;2023-04-15T12:59:24;41.80;;;21.50;;
30553;SDS011;17335;50.720;7.452;2023-04-15T13:01:51;26.48;;;12.65;;
30553;SDS011;17335;50.720;7.452;2023-04-15T13:04:18;99.90;;;45.95;;
30553;SDS011;17335;50.720;7.452;2023-04-15T13:06:45;39.60;;;20.30;;
30553;SDS011;17335;50.720;7.452;2023-04-15T13:09:12;27.08;;;13.70;;
30553;SDS011;17335;50.720;7.452;2023-04-15T13:11:39;21.60;;;10.10;;
30553;SDS011;17335;50.720;7.452;2023-04-15T13:14:07;15.00;;;7.78;;
30553;SDS011;17335;50.720;7.452;2023-04-15T13:16:34;10.27;;;6.10;;
30553;SDS011;17335;50.720;7.452;2023-04-15T13:19:01;11.75;;;6.30;;
30553;SDS011;17335;50.720;7.452;2023-04-15T13:21:29;11.38;;;6.38;;
30553;SDS011;17335;50.720;7.452;2023-04-15T13:24:01;15.18;;;7.95;;
30553;SDS011;17335;50.720;7.452;2023-04-15T13:26:29;58.53;;;24.75;;
30553;SDS011;17335;50.720;7.452;2023-04-15T13:28:57;30.35;;;14.48;;
30553;SDS011;17335;50.720;7.452;2023-04-15T13:31:24;21.80;;;11.63;;
30553;SDS011;17335;50.720;7.452;2023-04-15T13:33:51;19.77;;;10.00;;
30553;SDS011;17335;50.720;7.452;2023-04-15T13:36:18;13.18;;;6.72;;
30553;SDS011;17335;50.720;7.452;2023-04-15T13:38:44;19.23;;;10.65;;
30553;SDS011;17335;50.720;7.452;2023-04-15T13:41:15;16.58;;;7.22;;
30553;SDS011;17335;50.720;7.452;2023-04-15T13:43:42;13.80;;;7.88;;
30553;SDS011;17335;50.720;7.452;2023-04-15T13:46:08;14.65;;;7.22;;
30553;SDS011;17335;50.720;7.452;2023-04-15T13:48:35;13.98;;;7.38;;
30553;SDS011;17335;50.720;7.452;2023-04-15T13:51:02;30.20;;;11.23;;
30553;SDS011;17335;50.720;7.452;2023-04-15T13:53:28;35.08;;;12.90;;
30553;SDS011;17335;50.720;7.452;2023-04-15T13:56:04;36.97;;;14.23;;
30553;SDS011;17335;50.720;7.452;2023-04-15T13:58:32;19.48;;;9.60;;
30553;SDS011;17335;50.720;7.452;2023-04-15T14:00:58;35.25;;;13.25;;
30553;SDS011;17335;50.720;7.452;2023-04-15T14:03:27;51.00;;;19.08;;
30553;SDS011;17335;50.720;7.452;2023-04-15T14:05:53;31.48;;;12.18;;
30553;SDS011;17335;50.720;7.452;2023-04-15T14:08:22;22.27;;;9.90;;
30553;SDS011;17335;50.720;7.452;2023-04-15T14:10:50;46.95;;;16.90;;
30553;SDS011;17335;50.720;7.452;2023-04-15T14:13:16;13.95;;;7.38;;
30553;SDS011;17335;50.720;7.452;2023-04-15T14:15:44;11.52;;;6.47;;
30553;SDS011;17335;50.720;7.452;2023-04-15T14:18:11;50.42;;;16.98;;
30553;SDS011;17335;50.720;7.452;2023-04-15T14:20:37;14.60;;;6.93;;
30553;SDS011;17335;50.720;7.452;2023-04-15T14:23:04;13.45;;;6.35;;
30553;SDS011;17335;50.720;7.452;2023-04-15T14:25:31;75.28;;;22.48;;
30553;SDS011;17335;50.720;7.452;2023-04-15T14:27:59;53.85;;;18.13;;
30553;SDS011;17335;50.720;7.452;2023-04-15T14:30:26;39.03;;;15.05;;
30553;SDS011;17335;50.720;7.452;2023-04-15T14:32:53;38.42;;;15.00;;
30553;SDS011;17335;50.720;7.452;2023-04-15T14:35:19;150.88;;;39.25;;
30553;SDS011;17335;50.720;7.452;2023-04-15T14:37:46;21.23;;;10.75;;
30553;SDS011;17335;50.720;7.452;2023-04-15T14:40:12;20.75;;;10.43;;
30553;SDS011;17335;50.720;7.452;2023-04-15T14:42:39;20.85;;;10.20;;
30553;SDS011;17335;50.720;7.452;2023-04-15T14:45:06;14.68;;;7.47;;
30553;SDS011;17335;50.720;7.452;2023-04-15T14:47:33;18.77;;;8.10;;
30553;SDS011;17335;50.720;7.452;2023-04-15T14:49:59;95.72;;;25.70;;
30553;SDS011;17335;50.720;7.452;2023-04-15T14:52:26;15.60;;;7.70;;
30553;SDS011;17335;50.720;7.452;2023-04-15T14:54:52;12.82;;;7.13;;
30553;SDS011;17335;50.720;7.452;2023-04-15T14:57:18;11.55;;;6.45;;
30553;SDS011;17335;50.720;7.452;2023-04-15T14:59:45;16.30;;;7.63;;
30553;SDS011;17335;50.720;7.452;2023-04-15T15:02:12;11.52;;;6.53;;
30553;SDS011;17335;50.720;7.452;2023-04-15T15:04:51;13.90;;;7.25;;
30553;SDS011;17335;50.720;7.452;2023-04-15T15:07:18;21.63;;;8.73;;
30553;SDS011;17335;50.720;7.452;2023-04-15T15:09:44;18.25;;;9.05;;
30553;SDS011;17335;50.720;7.452;2023-04-15T15:12:11;14.38;;;6.70;;
30553;SDS011;17335;50.720;7.452;2023-04-15T15:14:38;13.80;;;6.55;;
30553;SDS011;17335;50.720;7.452;2023-04-15T15:17:04;12.10;;;6.60;;